Time;durP1;ratioP1;P1;durP2;ratioP2;P2;SDS_P1;SDS_P2;PMS_P1;PMS_P2;Temp;Humidity;BMP_temperature;BMP_pressure;BME280_temperature;BME280_humidity;BME280_pressure;Samples;Min_cycle;Max_cycle;Signal;HPM_P1;HPM_P2
2021/06/22 00:00:23;;;;;;;2.47;2.25;;;;;;;13.84;96.93;100687.28;4951807;28;20046;-83
2021/06/22 00:02:51;;;;;;;;;;;;;;;13.81;97.50;100684.75;4971691;28;20085;-83
2021/06/22 00:05:21;;;;;;;1.92;1.77;;;;;;;13.83;97.36;100688.22;4950514;28;20369;-83
2021/06/22 00:07:55;;;;;;;5.53;3.03;;;;;;;13.78;97.81;100692.72;4965825;28;20611;-84
2021/06/22 00:10:26;;;;;;;6.50;2.63;;;;;;;13.71;98.21;100688.47;4966561;28;20603;-83
2021/06/22 00:12:55;;;;;;;4.93;2.38;;;;;;;13.65;98.42;100683.31;4966918;28;20134;-82
2021/06/22 00:15:24;;;;;;;3.10;2.35;;;;;;;13.60;98.98;100690.44;4953991;28;20185;-83
2021/06/22 00:17:52;;;;;;;5.07;3.05;;;;;;;13.53;99.37;100681.81;4950025;28;20211;-81
2021/06/22 00:20:21;;;;;;;4.90;3.88;;;;;;;13.49;99.25;100681.03;4954101;28;20050;-84
2021/06/22 00:22:50;;;;;;;5.55;4.70;;;;;;;13.47;99.68;100685.44;4971318;28;20038;-85
2021/06/22 00:25:21;;;;;;;7.60;3.80;;;;;;;13.47;99.83;100690.72;4948626;28;20137;-84
2021/06/22 00:27:49;;;;;;;7.68;4.15;;;;;;;13.45;99.88;100681.97;4969295;28;20599;-84
2021/06/22 00:30:17;;;;;;;4.53;3.67;;;;;;;13.43;99.65;100688.16;4947943;28;20138;-82
2021/06/22 00:32:44;;;;;;;8.93;3.90;;;;;;;13.42;100.00;100686.47;4965157;28;20349;-83
2021/06/22 00:35:15;;;;;;;6.43;4.55;;;;;;;13.38;100.00;100685.66;4961124;28;20081;-83
2021/06/22 00:37:43;;;;;;;12.48;5.35;;;;;;;13.32;100.00;100689.22;4949015;28;20540;-84
2021/06/22 00:40:18;;;;;;;6.53;4.35;;;;;;;13.27;100.00;100692.84;4935109;28;20047;-81
2021/06/22 00:42:48;;;;;;;8.77;3.70;;;;;;;13.24;100.00;100688.50;4959449;28;20556;-81
2021/06/22 00:45:17;;;;;;;11.27;5.03;;;;;;;13.16;100.00;100683.41;4951094;28;20101;-82
2021/06/22 00:47:43;;;;;;;12.63;4.80;;;;;;;13.09;100.00;100679.16;4964630;28;20055;-84
2021/06/22 00:50:11;;;;;;;7.28;3.55;;;;;;;12.99;100.00;100682.84;4949547;28;20063;-83
2021/06/22 00:52:39;;;;;;;8.20;4.13;;;;;;;12.92;100.00;100684.75;4950441;28;20051;-82
2021/06/22 00:55:28;;;;;;;5.75;3.15;;;;;;;12.89;100.00;100688.28;4935406;28;20142;-82
2021/06/22 00:58:03;;;;;;;7.55;3.88;;;;;;;12.85;100.00;100686.63;4951191;28;20505;-81
2021/06/22 01:00:32;;;;;;;8.32;4.13;;;;;;;12.86;100.00;100698.81;4966609;28;20055;-83
2021/06/22 01:03:01;;;;;;;9.00;4.47;;;;;;;12.90;100.00;100703.13;4956464;28;20058;-82
2021/06/22 01:05:29;;;;;;;4.82;3.58;;;;;;;12.96;100.00;100696.91;4931026;28;20043;-83
2021/06/22 01:07:58;;;;;;;7.32;3.08;;;;;;;13.01;100.00;100702.97;4974821;28;20057;-82
2021/06/22 01:10:27;;;;;;;6.22;3.03;;;;;;;13.07;99.63;100701.97;4962683;28;20051;-84
2021/06/22 01:12:58;;;;;;;5.57;3.22;;;;;;;13.13;98.92;100719.38;4960580;28;20051;-82
2021/06/22 01:15:29;;;;;;;7.32;3.25;;;;;;;13.17;98.91;100716.69;4940226;28;20088;-84
2021/06/22 01:18:02;;;;;;;10.68;3.58;;;;;;;13.21;98.19;100717.50;4957643;28;20047;-83
2021/06/22 01:20:32;;;;;;;9.27;3.28;;;;;;;13.21;98.29;100715.72;4950388;28;20043;-83
2021/06/22 01:23:02;;;;;;;9.80;4.15;;;;;;;13.22;98.05;100709.56;4939164;28;20055;-84
2021/06/22 01:25:32;;;;;;;7.18;2.90;;;;;;;13.24;97.68;100709.53;4957537;28;20066;-82
2021/06/22 01:27:59;;;;;;;7.10;3.28;;;;;;;13.27;97.15;100704.25;4933552;28;20054;-81
2021/06/22 01:30:30;;;;;;;4.50;3.20;;;;;;;13.26;96.82;100699.88;4940392;28;20047;-83
2021/06/22 01:33:01;;;;;;;5.30;2.78;;;;;;;13.25;97.43;100690.25;4953157;28;20057;-83
2021/06/22 01:35:28;;;;;;;2.70;2.50;;;;;;;13.30;96.96;100693.66;4954272;28;20039;-82
2021/06/22 01:38:09;;;;;;;8.43;4.47;;;;;;;13.34;96.58;100699.72;4966623;28;20038;-83
2021/06/22 01:40:51;;;;;;;8.30;3.53;;;;;;;13.38;96.55;100698.78;4952386;28;20047;-83
2021/06/22 01:43:19;;;;;;;6.05;3.95;;;;;;;13.40;95.90;100704.88;4952902;28;20074;-83
2021/06/22 01:45:47;;;;;;;6.60;3.40;;;;;;;13.39;95.71;100704.00;4949784;28;20053;-84
2021/06/22 01:48:14;;;;;;;4.43;3.03;;;;;;;13.39;95.63;100706.66;4973591;28;20081;-83
2021/06/22 01:50:41;;;;;;;5.03;3.53;;;;;;;13.40;95.33;100712.75;4970753;28;20257;-84
2021/06/22 01:53:08;;;;;;;11.90;3.28;;;;;;;13.36;95.42;100716.31;4972994;28;20055;-83
2021/06/22 01:55:37;;;;;;;6.75;2.80;;;;;;;13.34;95.36;100721.59;4967554;28;20042;-81
2021/06/22 01:58:15;;;;;;;5.75;3.13;;;;;;;13.35;95.51;100727.72;4954191;28;20111;-83
2021/06/22 02:00:48;;;;;;;7.70;3.40;;;;;;;13.35;95.64;100731.25;4970984;28;20050;-84
2021/06/22 02:03:21;;;;;;;7.97;3.63;;;;;;;13.36;95.18;100737.34;4953392;28;20584;-82
2021/06/22 02:05:49;;;;;;;;;;;;;;;13.36;94.95;100725.13;4969653;28;20057;-83
2021/06/22 02:08:19;;;;;;;6.80;3.38;;;;;;;13.40;94.96;100728.53;4964908;28;19938;-82
2021/06/22 02:10:49;;;;;;;4.63;4.10;;;;;;;13.38;94.59;100731.19;4955375;28;20030;-80
2021/06/22 02:13:19;;;;;;;8.57;3.83;;;;;;;13.39;95.14;100732.94;4963994;28;20038;-82
2021/06/22 02:15:46;;;;;;;9.52;4.22;;;;;;;13.41;94.97;100735.53;4968092;28;20070;-82
2021/06/22 02:18:13;;;;;;;11.43;4.45;;;;;;;13.40;95.22;100733.78;4984196;28;20561;-81
2021/06/22 02:20:43;;;;;;;6.13;3.83;;;;;;;13.39;94.56;100743.47;4968209;28;20043;-83
2021/06/22 02:23:12;;;;;;;5.90;4.15;;;;;;;13.37;94.77;100757.53;4976774;28;20152;-81
2021/06/22 02:25:40;;;;;;;5.40;3.30;;;;;;;13.35;94.08;100765.41;4970486;28;20047;-84
2021/06/22 02:28:15;;;;;;;3.90;3.38;;;;;;;13.36;94.47;100776.78;4973471;28;20523;-83
2021/06/22 02:30:43;;;;;;;10.50;4.22;;;;;;;13.36;94.39;100777.72;4980279;28;20050;-84
2021/06/22 02:33:13;;;;;;;15.10;5.55;;;;;;;13.37;94.77;100766.28;4953667;28;20055;-80
2021/06/22 02:35:41;;;;;;;8.40;4.07;;;;;;;13.39;94.73;100776.78;4983345;28;20047;-82
2021/06/22 02:38:11;;;;;;;12.10;4.18;;;;;;;13.45;94.71;100775.78;4953759;28;20066;-81
2021/06/22 02:40:40;;;;;;;8.00;3.80;;;;;;;13.46;94.00;100774.91;4950133;28;20351;-84
2021/06/22 02:43:06;;;;;;;10.45;3.85;;;;;;;13.47;94.35;100789.78;4971021;28;20084;-84
2021/06/22 02:45:34;;;;;;;5.82;3.33;;;;;;;13.47;94.20;100798.53;4975819;28;20051;-83
2021/06/22 02:48:03;;;;;;;6.00;3.70;;;;;;;13.47;94.46;100801.16;4950829;28;20078;-82
2021/06/22 02:50:30;;;;;;;7.68;3.38;;;;;;;13.44;94.46;100798.59;4981990;28;20049;-82
2021/06/22 02:52:57;;;;;;;6.30;3.28;;;;;;;13.44;94.33;100789.81;4969811;28;20666;-83
2021/06/22 02:55:24;;;;;;;4.88;2.85;;;;;;;13.45;94.36;100773.16;4974055;28;20074;-83
2021/06/22 02:57:54;;;;;;;12.93;3.25;;;;;;;13.45;94.62;100763.50;4977952;28;20065;-82
2021/06/22 03:00:29;;;;;;;9.18;3.40;;;;;;;13.43;94.07;100739.00;4955832;28;20047;-82
2021/06/22 03:02:57;;;;;;;5.07;2.92;;;;;;;13.39;94.44;100725.06;4973593;28;20560;-83
2021/06/22 03:05:24;;;;;;;5.65;3.00;;;;;;;13.35;94.52;100715.47;4968302;28;20050;-83
2021/06/22 03:07:51;;;;;;;8.77;2.97;;;;;;;13.34;94.44;100724.25;4966098;28;20053;-83
2021/06/22 03:10:22;;;;;;;7.47;3.28;;;;;;;13.34;94.42;100745.28;4971322;28;20051;-83
2021/06/22 03:12:49;;;;;;;6.95;3.58;;;;;;;13.32;94.41;100760.19;4953459;28;20054;-83
2021/06/22 03:15:18;;;;;;;9.20;3.65;;;;;;;13.33;94.14;100768.97;4975303;28;20524;-84
2021/06/22 03:17:45;;;;;;;4.10;3.22;;;;;;;13.33;94.20;100763.72;4981972;28;20057;-85
2021/06/22 03:20:12;;;;;;;6.13;3.15;;;;;;;13.39;94.31;100767.13;4975788;28;20062;-84
2021/06/22 03:22:40;;;;;;;5.15;3.63;;;;;;;13.38;94.10;100770.63;4969470;28;20061;-84
2021/06/22 03:25:09;;;;;;;6.53;2.70;;;;;;;13.36;94.05;100768.91;4954186;28;20065;-82
2021/06/22 03:27:37;;;;;;;5.38;3.38;;;;;;;13.37;94.44;100774.16;4981793;28;20038;-83
2021/06/22 03:30:10;;;;;;;9.93;3.42;;;;;;;13.41;94.38;100788.13;4953154;28;20053;-83
2021/06/22 03:32:43;;;;;;;5.32;3.33;;;;;;;13.44;93.99;100782.81;4970215;28;20046;-82
2021/06/22 03:35:13;;;;;;;;;;;;;;;13.43;93.97;100786.34;4982076;28;20062;-83
2021/06/22 03:37:42;;;;;;;7.75;2.75;;;;;;;13.43;93.97;100775.81;4967131;28;19930;-83
2021/06/22 03:40:10;;;;;;;11.75;3.40;;;;;;;13.41;94.07;100777.59;4964353;28;20054;-83
2021/06/22 03:42:39;;;;;;;8.80;3.47;;;;;;;13.39;93.76;100775.00;4976222;28;20565;-82
2021/06/22 03:45:09;;;;;;;5.75;2.25;;;;;;;13.39;94.13;100776.78;4972454;28;20498;-84
2021/06/22 03:47:36;;;;;;;8.93;3.05;;;;;;;13.38;93.94;100778.53;4965989;28;20062;-82
2021/06/22 03:50:06;;;;;;;12.10;4.68;;;;;;;13.43;93.87;100774.94;4989673;28;20042;-84
2021/06/22 03:52:33;;;;;;;5.72;3.40;;;;;;;13.43;93.95;100773.19;4952173;28;20051;-81
2021/06/22 03:55:00;;;;;;;7.60;2.78;;;;;;;13.43;93.89;100783.72;4952721;28;20051;-84
2021/06/22 03:57:27;;;;;;;8.05;2.95;;;;;;;13.47;93.44;100785.38;4954047;28;20062;-81
2021/06/22 03:59:55;;;;;;;7.82;3.70;;;;;;;13.49;93.40;100788.88;4965906;28;20121;-82
2021/06/22 04:02:22;;;;;;;7.28;2.90;;;;;;;13.52;93.19;100803.72;4961879;28;20509;-83
2021/06/22 04:04:50;;;;;;;8.77;3.53;;;;;;;13.55;93.09;100808.91;4967323;28;20571;-83
2021/06/22 04:07:18;;;;;;;8.63;3.22;;;;;;;13.57;92.98;100815.88;4961225;28;20105;-83
2021/06/22 04:09:46;;;;;;;4.82;3.10;;;;;;;13.63;92.77;100829.81;4950675;28;20126;-82
2021/06/22 04:12:13;;;;;;;8.07;3.30;;;;;;;13.65;92.59;100828.88;4968109;28;20058;-83
2021/06/22 04:14:40;;;;;;;7.82;3.08;;;;;;;13.67;91.91;100829.72;4953626;28;20057;-83
2021/06/22 04:17:09;;;;;;;8.55;2.58;;;;;;;13.70;91.81;100813.00;4960704;28;20425;-83
2021/06/22 04:19:36;;;;;;;10.52;3.20;;;;;;;13.72;91.58;100817.34;4961169;28;20190;-82
2021/06/22 04:22:04;;;;;;;8.70;3.20;;;;;;;13.78;91.41;100821.63;4964546;28;20062;-83
2021/06/22 04:24:31;;;;;;;14.40;5.03;;;;;;;13.82;91.06;100827.69;4966851;28;20093;-83
2021/06/22 04:26:58;;;;;;;8.10;3.30;;;;;;;13.84;91.00;100823.25;4965987;28;20054;-83
2021/06/22 04:29:25;;;;;;;11.13;3.03;;;;;;;13.84;90.78;100821.47;4953012;28;20156;-82
2021/06/22 04:31:53;;;;;;;6.82;3.00;;;;;;;13.90;90.84;100820.53;4948009;28;20042;-84
2021/06/22 04:34:20;;;;;;;4.18;3.05;;;;;;;13.93;90.49;100830.97;4974103;28;20034;-83
2021/06/22 04:36:47;;;;;;;8.25;2.25;;;;;;;13.94;90.46;100832.72;4959946;28;20461;-82
2021/06/22 04:39:16;;;;;;;6.20;3.38;;;;;;;13.94;90.19;100827.44;4969868;28;20150;-83
2021/06/22 04:41:43;;;;;;;7.32;3.08;;;;;;;13.95;90.08;100828.31;4972074;28;20113;-83
2021/06/22 04:44:10;;;;;;;6.50;2.67;;;;;;;13.96;90.10;100830.03;4970612;28;20039;-84
2021/06/22 04:46:37;;;;;;;5.95;3.50;;;;;;;13.98;90.11;100837.00;4968510;28;20437;-83
2021/06/22 04:49:04;;;;;;;8.95;3.47;;;;;;;14.00;90.26;100843.13;4965744;28;20197;-82
2021/06/22 04:51:31;;;;;;;10.82;4.22;;;;;;;14.01;89.91;100849.25;4953519;28;20051;-82
2021/06/22 04:53:59;;;;;;;6.35;3.53;;;;;;;13.99;90.01;100857.19;4941249;28;20050;-83
2021/06/22 04:56:27;;;;;;;6.22;3.67;;;;;;;13.97;90.25;100855.47;4990779;28;20123;-83
2021/06/22 04:58:57;;;;;;;11.80;3.65;;;;;;;13.94;90.45;100847.66;4975753;28;20390;-82
2021/06/22 05:01:28;;;;;;;10.57;3.63;;;;;;;13.98;90.82;100838.78;4967447;28;20046;-82
2021/06/22 05:03:56;;;;;;;5.53;3.03;;;;;;;14.03;90.44;100839.56;4969642;28;20557;-83
2021/06/22 05:06:23;;;;;;;5.47;3.20;;;;;;;14.09;90.28;100835.94;4966096;28;20647;-82
2021/06/22 05:08:51;;;;;;;6.72;3.05;;;;;;;14.12;89.96;100830.59;4964516;28;20129;-82
2021/06/22 05:11:19;;;;;;;7.75;3.95;;;;;;;14.16;89.78;100827.03;4966113;28;20458;-81
2021/06/22 05:13:46;;;;;;;8.52;3.80;;;;;;;14.27;89.53;100838.16;4950988;28;20445;-81
2021/06/22 05:16:15;;;;;;;8.63;3.33;;;;;;;14.39;89.25;100831.75;4970342;28;20051;-83
2021/06/22 05:18:42;;;;;;;8.05;3.70;;;;;;;14.52;88.12;100842.91;4951237;28;20050;-81
2021/06/22 05:21:11;;;;;;;5.65;3.50;;;;;;;14.63;87.95;100853.22;4967616;28;20070;-81
2021/06/22 05:23:38;;;;;;;12.90;3.47;;;;;;;14.70;87.16;100847.78;4950700;28;20359;-83
2021/06/22 05:26:07;;;;;;;11.77;4.35;;;;;;;14.77;86.91;100845.00;4965064;28;20527;-84
2021/06/22 05:28:34;;;;;;;6.65;4.10;;;;;;;14.82;86.65;100854.56;4952359;28;20057;-84
2021/06/22 05:31:03;;;;;;;7.28;3.35;;;;;;;14.87;86.30;100855.31;4963979;28;20047;-83
2021/06/22 05:33:32;;;;;;;8.35;4.10;;;;;;;14.91;86.24;100855.25;4976376;28;20062;-82
2021/06/22 05:35:59;;;;;;;8.32;3.95;;;;;;;14.95;86.05;100857.75;4968522;28;20038;-81
2021/06/22 05:38:25;;;;;;;5.10;3.40;;;;;;;15.07;85.82;100853.09;4954813;28;20239;-81
2021/06/22 05:40:52;;;;;;;7.32;3.25;;;;;;;15.19;85.14;100850.16;4946846;28;20043;-82
2021/06/22 05:43:19;;;;;;;8.98;3.35;;;;;;;15.25;84.82;100841.22;4969213;28;20445;-81
2021/06/22 05:45:45;;;;;;;13.40;4.22;;;;;;;15.35;84.49;100838.28;4973559;28;20182;-82
2021/06/22 05:48:13;;;;;;;6.80;3.47;;;;;;;15.48;83.88;100832.72;4985413;28;20046;-83
2021/06/22 05:50:39;;;;;;;10.40;3.60;;;;;;;15.60;83.11;100831.53;4975842;28;20199;-83
2021/06/22 05:53:09;;;;;;;11.07;3.30;;;;;;;15.71;81.84;100821.53;4953377;28;20047;-82
2021/06/22 05:55:38;;;;;;;7.03;2.90;;;;;;;15.77;81.55;100820.50;4966159;28;20047;-82
2021/06/22 05:58:05;;;;;;;9.18;3.55;;;;;;;15.79;81.40;100823.97;4968811;28;20078;-82
2021/06/22 06:00:34;;;;;;;12.57;5.18;;;;;;;15.85;81.62;100829.97;4970321;28;20143;-82
2021/06/22 06:03:01;;;;;;;7.00;3.22;;;;;;;15.94;80.87;100825.34;4957885;28;20211;-82
2021/06/22 06:05:29;;;;;;;5.20;3.00;;;;;;;15.98;80.31;100841.06;4970935;28;20039;-83
2021/06/22 06:07:56;;;;;;;10.20;4.53;;;;;;;16.03;80.21;100859.41;4972838;28;20049;-81
2021/06/22 06:10:24;;;;;;;9.18;2.75;;;;;;;16.07;80.02;100861.03;4956442;28;20045;-82
2021/06/22 06:13:11;;;;;;;11.52;5.00;;;;;;;16.16;79.82;100855.47;4968535;28;20069;-83
2021/06/22 06:15:39;;;;;;;8.18;3.13;;;;;;;16.27;79.25;100862.22;4970343;28;20043;-84
2021/06/22 06:18:12;;;;;;;7.70;3.58;;;;;;;16.33;78.69;100857.63;4955907;28;20517;-84
2021/06/22 06:20:41;;;;;;;7.82;3.92;;;;;;;16.29;78.14;100865.72;4982190;28;20059;-83
2021/06/22 06:23:07;;;;;;;7.10;3.42;;;;;;;16.32;78.34;100874.41;4955855;28;20072;-83
2021/06/22 06:25:34;;;;;;;6.22;3.67;;;;;;;16.31;77.62;100874.44;4969929;28;20062;-83
2021/06/22 06:28:02;;;;;;;8.27;3.00;;;;;;;16.29;77.86;100881.56;4970008;28;20552;-82
2021/06/22 06:30:30;;;;;;;8.65;2.72;;;;;;;16.32;77.41;100871.78;4973387;28;20106;-84
2021/06/22 06:32:58;;;;;;;8.45;2.60;;;;;;;16.39;77.17;100877.75;4968674;28;20031;-83
2021/06/22 06:35:27;;;;;;;7.75;3.40;;;;;;;16.38;76.70;100878.63;4970986;28;20046;-84
2021/06/22 06:37:54;;;;;;;6.07;3.70;;;;;;;16.32;76.74;100868.25;4973640;28;20062;-84
2021/06/22 06:40:20;;;;;;;7.20;3.00;;;;;;;16.20;77.01;100866.84;4965249;28;20048;-83
2021/06/22 06:42:48;;;;;;;11.32;5.55;;;;;;;16.20;77.08;100873.00;4984138;28;20138;-82
2021/06/22 06:45:17;;;;;;;6.32;2.70;;;;;;;16.23;77.04;100876.44;4969144;28;20043;-85
2021/06/22 06:47:48;;;;;;;6.18;2.65;;;;;;;16.35;76.65;100884.88;4987830;28;20073;-84
2021/06/22 06:50:16;;;;;;;7.45;2.88;;;;;;;16.47;75.65;100888.06;4952811;28;20355;-82
2021/06/22 06:52:45;;;;;;;6.30;3.17;;;;;;;16.58;74.95;100895.69;4951856;28;20047;-83
2021/06/22 06:55:26;;;;;;;7.03;2.88;;;;;;;16.57;74.48;100892.19;4953825;28;20051;-83
2021/06/22 06:58:00;;;;;;;8.68;3.42;;;;;;;16.61;74.11;100900.84;4981158;28;20074;-84
2021/06/22 07:00:34;;;;;;;4.57;3.28;;;;;;;16.65;74.06;100890.16;4950815;28;20501;-83
2021/06/22 07:03:01;;;;;;;5.78;3.17;;;;;;;16.77;73.39;100885.41;4934027;28;20051;-83
2021/06/22 07:05:30;;;;;;;7.15;3.38;;;;;;;16.89;73.37;100884.16;4983632;28;20043;-82
2021/06/22 07:07:58;;;;;;;5.30;2.97;;;;;;;17.06;72.38;100883.66;4961142;28;20106;-82
2021/06/22 07:10:26;;;;;;;5.32;2.83;;;;;;;17.25;71.42;100874.19;4975068;28;20055;-82
2021/06/22 07:12:57;;;;;;;9.32;2.80;;;;;;;17.43;70.18;100875.38;4970118;28;20101;-83
2021/06/22 07:15:24;;;;;;;5.95;2.80;;;;;;;17.47;69.41;100877.00;4955751;28;20062;-82
2021/06/22 07:17:51;;;;;;;6.30;2.53;;;;;;;17.38;69.44;100877.31;4977373;28;20045;-84
2021/06/22 07:20:21;;;;;;;5.97;2.45;;;;;;;17.30;69.91;100887.25;4972610;28;20042;-83
2021/06/22 07:22:49;;;;;;;8.50;4.30;;;;;;;17.24;69.81;100879.56;4970480;28;20050;-83
2021/06/22 07:25:20;;;;;;;4.60;2.88;;;;;;;17.18;67.64;100893.81;4955644;28;20125;-80
2021/06/22 07:27:48;;;;;;;9.93;2.90;;;;;;;17.08;69.51;100892.38;4971040;28;20042;-82
2021/06/22 07:30:17;;;;;;;5.82;3.30;;;;;;;17.11;68.81;100889.66;4954203;28;20692;-84
2021/06/22 07:32:44;;;;;;;5.93;2.63;;;;;;;17.10;68.66;100899.38;4937174;28;20043;-83
2021/06/22 07:35:13;;;;;;;7.13;3.08;;;;;;;17.19;68.30;100891.16;4987189;28;20103;-82
2021/06/22 07:37:40;;;;;;;9.00;2.95;;;;;;;17.34;68.22;100896.84;4970105;28;20065;-83
2021/06/22 07:40:09;;;;;;;5.05;2.83;;;;;;;17.46;67.05;100896.44;4971916;28;20050;-83
2021/06/22 07:42:38;;;;;;;2.75;2.20;;;;;;;17.53;67.55;100899.72;4954174;28;20047;-83
2021/06/22 07:45:06;;;;;;;7.57;3.05;;;;;;;17.79;67.09;100898.81;4955639;28;20101;-83
2021/06/22 07:47:34;;;;;;;7.03;2.45;;;;;;;17.94;65.83;100894.81;4983289;28;20047;-83
2021/06/22 07:50:06;;;;;;;3.45;2.38;;;;;;;18.06;65.01;100892.66;4967574;28;20049;-83
2021/06/22 07:52:32;;;;;;;6.68;2.83;;;;;;;18.28;64.45;100892.72;4942672;28;20047;-84
2021/06/22 07:54:59;;;;;;;4.82;3.17;;;;;;;19.03;61.68;100891.59;4955699;28;20053;-84
2021/06/22 07:57:27;;;;;;;8.13;4.15;;;;;;;19.71;58.88;100887.91;4955477;28;20773;-82
2021/06/22 07:59:53;;;;;;;8.52;3.42;;;;;;;20.54;56.20;100891.31;4944134;28;20053;-83
2021/06/22 08:02:23;;;;;;;5.40;2.05;;;;;;;20.86;54.40;100903.13;4945346;28;20049;-83
2021/06/22 08:04:54;;;;;;;5.93;2.08;;;;;;;21.18;53.13;100892.69;4967647;28;20035;-83
2021/06/22 08:07:24;;;;;;;5.18;2.38;;;;;;;21.32;52.49;100887.53;4968750;28;20480;-84
2021/06/22 08:09:52;;;;;;;2.78;2.00;;;;;;;21.54;52.06;100878.47;4952741;28;20469;-83
2021/06/22 08:12:21;;;;;;;3.70;2.38;;;;;;;21.97;51.14;100880.72;4951604;28;20047;-83
2021/06/22 08:14:48;;;;;;;5.13;2.72;;;;;;;21.65;49.74;100885.91;4947772;28;20052;-82
2021/06/22 08:17:15;;;;;;;3.75;2.10;;;;;;;20.81;51.58;100891.81;4961720;28;20051;-84
2021/06/22 08:19:42;;;;;;;7.78;3.03;;;;;;;19.83;54.70;100901.53;4950388;28;20078;-85
2021/06/22 08:22:08;;;;;;;5.07;2.00;;;;;;;19.14;56.83;100907.09;4964607;28;20061;-83
2021/06/22 08:24:35;;;;;;;6.95;2.20;;;;;;;18.64;59.17;100910.78;4952020;28;20062;-82
2021/06/22 08:27:01;;;;;;;8.38;2.50;;;;;;;18.22;61.15;100919.44;4965400;28;20038;-83
2021/06/22 08:29:30;;;;;;;5.20;2.20;;;;;;;17.90;62.50;100916.13;4965141;28;20046;-81
2021/06/22 08:31:58;;;;;;;8.18;2.67;;;;;;;17.52;63.94;100922.69;4972290;28;20050;-82
2021/06/22 08:34:25;;;;;;;4.63;2.13;;;;;;;17.29;65.03;100919.94;4969057;28;20047;-81
2021/06/22 08:36:52;;;;;;;6.90;2.58;;;;;;;17.13;65.61;100919.56;4967782;28;20054;-82
2021/06/22 08:39:18;;;;;;;5.35;2.50;;;;;;;17.07;65.78;100915.34;4958745;28;20074;-82
2021/06/22 08:41:49;;;;;;;6.65;2.45;;;;;;;17.04;66.22;100928.69;4960050;28;20050;-83
2021/06/22 08:44:19;;;;;;;5.88;1.65;;;;;;;17.02;66.25;100931.34;4973176;28;20493;-84
2021/06/22 08:46:47;;;;;;;5.95;2.22;;;;;;;17.02;65.88;100931.34;4951012;28;20105;-83
2021/06/22 08:49:14;;;;;;;8.13;1.85;;;;;;;17.06;66.07;100924.19;4954365;28;20398;-82
2021/06/22 08:51:44;;;;;;;3.33;1.58;;;;;;;17.12;65.26;100926.63;4964809;28;20773;-84
2021/06/22 08:54:13;;;;;;;9.45;2.60;;;;;;;17.29;64.65;100927.88;4952283;28;20478;-82
2021/06/22 08:56:41;;;;;;;6.03;1.50;;;;;;;17.52;63.77;100935.03;4961993;28;20054;-83
2021/06/22 08:59:10;;;;;;;2.78;1.80;;;;;;;17.78;62.94;100938.59;4964596;28;20053;-82
2021/06/22 09:01:38;;;;;;;7.13;2.70;;;;;;;18.07;61.95;100934.09;4947993;28;20098;-81
2021/06/22 09:04:05;;;;;;;3.60;1.67;;;;;;;18.30;60.55;100933.25;4934497;28;20074;-82
2021/06/22 09:06:42;;;;;;;2.97;2.30;;;;;;;18.41;59.40;100938.16;4964986;28;20383;-84
2021/06/22 09:09:22;;;;;;;3.92;1.65;;;;;;;18.50;59.08;100929.88;4950629;28;20109;-84
2021/06/22 09:12:11;;;;;;;6.60;2.08;;;;;;;18.54;58.66;100935.91;4964594;28;20047;-84
2021/06/22 09:14:42;;;;;;;5.05;2.25;;;;;;;18.68;58.07;100938.91;4979092;28;20065;-82
2021/06/22 09:17:09;;;;;;;3.78;1.95;;;;;;;18.78;58.20;100934.13;4944764;28;20564;-82
2021/06/22 09:19:37;;;;;;;4.05;2.08;;;;;;;19.14;57.48;100933.63;4967308;28;20062;-82
2021/06/22 09:22:19;;;;;;;5.40;1.60;;;;;;;20.80;53.43;100924.69;4953171;28;20046;-82
2021/06/22 09:25:12;;;;;;;4.75;1.63;;;;;;;21.89;49.51;100918.44;4953490;28;20074;-82
2021/06/22 09:27:53;;;;;;;4.40;1.40;;;;;;;21.94;49.06;100920.84;4963574;28;20070;-83
2021/06/22 09:30:48;;;;;;;3.33;1.10;;;;;;;21.60;49.13;100926.13;4951482;28;20425;-82
2021/06/22 09:33:21;;;;;;;1.92;1.40;;;;;;;21.29;50.02;100922.31;4952474;28;20093;-82
2021/06/22 09:35:56;;;;;;;2.25;1.40;;;;;;;21.02;50.27;100921.84;4976852;28;20221;-83
2021/06/22 09:38:23;;;;;;;5.38;1.40;;;;;;;20.67;50.87;100921.72;4955827;28;20054;-83
2021/06/22 09:41:11;;;;;;;4.03;1.33;;;;;;;20.21;51.97;100926.47;4960744;28;20061;-83
2021/06/22 09:43:41;;;;;;;4.82;2.10;;;;;;;19.76;53.01;100933.72;4977669;28;20039;-81
2021/06/22 09:46:13;;;;;;;6.50;2.85;;;;;;;19.26;54.97;100940.22;4988459;28;20050;-83
2021/06/22 09:48:54;;;;;;;5.75;1.90;;;;;;;18.95;56.22;100931.69;4966483;28;20051;-82
2021/06/22 09:51:34;;;;;;;6.80;1.85;;;;;;;18.75;56.90;100945.72;4969075;28;20122;-82
2021/06/22 09:54:24;;;;;;;4.80;2.10;;;;;;;18.60;56.74;100938.34;4956641;28;20149;-83
2021/06/22 09:57:04;;;;;;;5.97;1.95;;;;;;;18.52;56.64;100939.50;4967068;28;20051;-85
2021/06/22 09:59:47;;;;;;;2.88;1.92;;;;;;;18.48;56.60;100945.81;4984069;28;20070;-84
2021/06/22 10:02:17;;;;;;;6.93;2.33;;;;;;;18.52;56.33;100936.84;4976491;28;20141;-84
2021/06/22 10:05:02;;;;;;;4.15;1.52;;;;;;;18.75;56.05;100939.56;4969545;28;20833;-85
2021/06/22 10:07:30;;;;;;;4.28;1.58;;;;;;;18.98;54.96;100942.19;4951734;28;20054;-82
2021/06/22 10:10:03;;;;;;;4.63;1.70;;;;;;;19.08;54.49;100942.69;4954173;28;20050;-82
2021/06/22 10:12:32;;;;;;;4.15;1.63;;;;;;;19.27;54.36;100949.94;4951373;28;20094;-84
2021/06/22 10:15:03;;;;;;;3.10;1.60;;;;;;;19.65;53.39;100939.50;4956059;28;20055;-84
2021/06/22 10:17:32;;;;;;;4.38;2.00;;;;;;;20.11;52.15;100949.94;4962757;28;20123;-83
2021/06/22 10:20:03;;;;;;;5.55;1.83;;;;;;;20.62;51.21;100952.97;4953665;28;20054;-84
2021/06/22 10:22:35;;;;;;;3.92;1.83;;;;;;;21.64;48.00;100942.78;4952934;28;20101;-83
2021/06/22 10:25:08;;;;;;;4.68;1.67;;;;;;;22.68;45.98;100948.91;4970438;28;20050;-84
2021/06/22 10:27:35;;;;;;;4.22;2.35;;;;;;;23.52;43.38;100944.22;4965387;28;20042;-84
2021/06/22 10:30:05;;;;;;;8.68;2.50;;;;;;;23.55;43.77;100950.25;4948775;28;20589;-83
2021/06/22 10:32:34;;;;;;;6.78;2.75;;;;;;;23.25;44.14;100953.75;4958361;28;20058;-83
2021/06/22 10:35:13;;;;;;;5.60;2.28;;;;;;;22.48;44.84;100957.16;4959082;28;20051;-85
2021/06/22 10:38:03;;;;;;;7.47;1.85;;;;;;;21.80;46.46;100950.88;4981480;28;20083;-85
2021/06/22 10:40:31;;;;;;;4.05;1.80;;;;;;;21.36;48.19;100949.47;4978339;28;20050;-84
2021/06/22 10:43:05;;;;;;;2.63;1.13;;;;;;;20.91;48.82;100964.97;4974803;28;20057;-83
2021/06/22 10:45:33;;;;;;;2.25;1.30;;;;;;;20.53;49.74;100962.22;4965886;28;20077;-83
2021/06/22 10:48:00;;;;;;;5.00;1.73;;;;;;;20.27;50.41;100958.97;4979182;28;20544;-83
2021/06/22 10:50:27;;;;;;;2.63;1.58;;;;;;;20.07;50.87;100959.00;4956900;28;20057;-82
2021/06/22 10:53:06;;;;;;;4.45;1.45;;;;;;;19.87;51.16;100963.38;4978050;28;20069;-82
2021/06/22 10:55:36;;;;;;;4.10;1.75;;;;;;;19.76;51.43;100955.81;4957420;28;20126;-83
2021/06/22 10:58:03;;;;;;;4.68;1.35;;;;;;;19.77;51.97;100964.66;4975338;28;20094;-82
2021/06/22 11:00:41;;;;;;;2.72;1.15;;;;;;;19.83;51.96;100957.34;4970395;28;20079;-84
2021/06/22 11:03:22;;;;;;;3.33;1.45;;;;;;;19.99;51.27;100960.19;4974230;28;20047;-83
2021/06/22 11:06:13;;;;;;;4.13;1.38;;;;;;;20.18;50.87;100964.72;4976401;28;20055;-83
2021/06/22 11:08:46;;;;;;;4.60;1.30;;;;;;;20.35;50.41;100963.06;4973630;28;20515;-83
2021/06/22 11:11:13;;;;;;;6.57;2.33;;;;;;;20.54;49.89;100968.44;4967379;28;20058;-83
2021/06/22 11:13:54;;;;;;;4.85;1.55;;;;;;;20.75;49.18;100964.78;4971421;28;20110;-82
2021/06/22 11:16:20;;;;;;;1.30;1.13;;;;;;;20.93;48.49;100971.06;4965713;28;20050;-86
2021/06/22 11:18:53;;;;;;;2.63;1.50;;;;;;;21.25;47.19;100967.78;4987322;28;20100;-83
2021/06/22 11:21:28;;;;;;;4.38;1.73;;;;;;;21.88;45.92;100953.16;4977945;28;20050;-84
2021/06/22 11:24:15;;;;;;;6.28;1.58;;;;;;;22.72;43.25;100957.59;4972254;28;20065;-83
2021/06/22 11:26:48;;;;;;;3.42;2.13;;;;;;;23.74;41.96;100947.34;4950939;28;20057;-82
2021/06/22 11:29:44;;;;;;;1.73;1.17;;;;;;;24.60;40.09;100943.91;4965802;28;20053;-83
2021/06/22 11:32:27;;;;;;;3.15;1.60;;;;;;;25.59;38.26;100947.34;4970285;28;20042;-84
2021/06/22 11:34:57;;;;;;;2.38;1.38;;;;;;;26.74;36.17;100935.81;4950686;28;20477;-82
2021/06/22 11:37:28;;;;;;;2.42;1.73;;;;;;;27.68;34.37;100940.56;4954658;28;20125;-83